Time;durP1;ratioP1;P1;durP2;ratioP2;P2;SDS_P1;SDS_P2;PMS_P1;PMS_P2;Temp;Humidity;BMP_temperature;BMP_pressure;BME280_temperature;BME280_humidity;BME280_pressure;Samples;Min_cycle;Max_cycle;Signal;HPM_P1;HPM_P2
2021/06/04 00:01:37;;;;;;;4.30;3.73;;;15.40;99.90;;;;;;5072775;28;20411;-67
2021/06/04 00:04:03;;;;;;;12.53;5.13;;;15.50;99.90;;;;;;5073537;28;20176;-68
2021/06/04 00:06:29;;;;;;;9.87;4.63;;;15.50;99.90;;;;;;5072834;28;20430;-67
2021/06/04 00:08:55;;;;;;;6.83;5.10;;;15.50;99.90;;;;;;5072651;28;20784;-68
2021/06/04 00:11:28;;;;;;;4.17;3.63;;;15.60;99.90;;;;;;5073040;28;20581;-67
2021/06/04 00:14:03;;;;;;;5.03;4.30;;;15.60;99.90;;;;;;5073046;28;20396;-66
2021/06/04 00:16:32;;;;;;;3.63;3.33;;;15.60;99.90;;;;;;5072538;28;20415;-67
2021/06/04 00:19:01;;;;;;;4.87;4.20;;;15.60;99.90;;;;;;5072954;28;20740;-68
2021/06/04 00:21:29;;;;;;;6.87;4.57;;;15.70;99.90;;;;;;5072742;28;20415;-68
2021/06/04 00:24:00;;;;;;;5.30;4.50;;;15.80;99.90;;;;;;5076447;28;20410;-67
2021/06/04 00:26:26;;;;;;;3.90;3.47;;;15.80;99.90;;;;;;5076108;28;20423;-67
2021/06/04 00:28:53;;;;;;;4.80;4.40;;;15.90;99.90;;;;;;5076090;28;20806;-67
2021/06/04 00:31:21;;;;;;;4.97;4.57;;;15.90;99.90;;;;;;5076329;28;20428;-67
2021/06/04 00:33:48;;;;;;;6.70;5.00;;;16.00;99.90;;;;;;5076098;28;20424;-68
2021/06/04 00:36:14;;;;;;;4.43;4.13;;;16.10;99.90;;;;;;5075909;28;20423;-67
2021/06/04 00:38:39;;;;;;;5.07;4.67;;;16.20;99.90;;;;;;5074742;28;20776;-67
2021/06/04 00:41:11;;;;;;;6.33;5.00;;;16.20;99.90;;;;;;5076106;28;20415;-67
2021/06/04 00:43:37;;;;;;;4.30;4.00;;;16.30;99.90;;;;;;5076088;28;20177;-66
2021/06/04 00:46:07;;;;;;;4.27;3.90;;;16.30;99.90;;;;;;5075638;28;20549;-68
2021/06/04 00:48:32;;;;;;;4.00;3.70;;;16.30;99.90;;;;;;5076003;28;20165;-67
2021/06/04 00:51:09;;;;;;;8.77;5.27;;;16.30;99.90;;;;;;5075901;28;20451;-68
2021/06/04 00:53:36;;;;;;;7.40;4.97;;;16.30;99.90;;;;;;5075950;28;20407;-66
2021/06/04 00:56:03;;;;;;;4.50;4.10;;;16.20;99.90;;;;;;5075459;28;20427;-67
2021/06/04 00:58:37;;;;;;;4.63;4.10;;;16.20;99.90;;;;;;5075820;28;20404;-68
2021/06/04 01:01:05;;;;;;;6.10;4.33;;;16.10;99.90;;;;;;5075874;28;20956;-68
2021/06/04 01:03:33;;;;;;;5.97;5.40;;;16.00;99.90;;;;;;5075740;28;20779;-68
2021/06/04 01:06:19;;;;;;;4.43;4.07;;;16.00;99.90;;;;;;5074009;28;20539;-67
2021/06/04 01:09:00;;;;;;;6.30;4.93;;;16.00;99.90;;;;;;5075369;28;20890;-68
2021/06/04 01:11:52;;;;;;;4.20;3.90;;;16.00;99.90;;;;;;5075414;28;20412;-67
2021/06/04 01:14:41;;;;;;;4.57;4.23;;;16.00;99.90;;;;;;5075689;28;20442;-68
2021/06/04 01:17:26;;;;;;;4.00;3.70;;;16.10;99.90;;;;;;5073865;28;20431;-68
2021/06/04 01:20:11;;;;;;;4.87;4.47;;;16.10;99.90;;;;;;5075482;28;20415;-68
2021/06/04 01:22:47;;;;;;;7.20;4.70;;;16.20;99.90;;;;;;5075508;28;20400;-67
2021/06/04 01:25:22;;;;;;;3.83;3.53;;;16.30;99.90;;;;;;5075121;28;20411;-68
2021/06/04 01:27:50;;;;;;;4.40;4.00;;;16.30;99.90;;;;;;5074959;28;20400;-66
2021/06/04 01:30:28;;;;;;;6.00;4.67;;;16.30;99.90;;;;;;5075004;28;20479;-67
2021/06/04 01:33:02;;;;;;;5.20;4.17;;;16.30;99.90;;;;;;5075014;28;20404;-68
2021/06/04 01:35:33;;;;;;;6.93;4.23;;;16.30;99.90;;;;;;5074873;28;20419;-67
2021/06/04 01:38:01;;;;;;;4.07;3.77;;;16.30;99.90;;;;;;5075126;28;20403;-67
2021/06/04 01:40:31;;;;;;;5.57;4.60;;;16.30;99.90;;;;;;5075074;28;20433;-68
2021/06/04 01:43:00;;;;;;;4.27;3.87;;;16.30;99.90;;;;;;5075031;28;20461;-68
2021/06/04 01:45:31;;;;;;;5.10;3.93;;;16.30;99.90;;;;;;5074561;28;20421;-68
2021/06/04 01:48:20;;;;;;;4.80;4.30;;;16.40;99.90;;;;;;5074798;28;20407;-67
2021/06/04 01:50:50;;;;;;;5.00;4.10;;;16.30;99.90;;;;;;5074380;28;20459;-68
2021/06/04 01:53:41;;;;;;;7.10;4.50;;;16.30;99.90;;;;;;5074562;28;20885;-67
2021/06/04 01:56:13;;;;;;;6.00;5.07;;;16.30;99.90;;;;;;5074437;28;20427;-67
2021/06/04 01:58:55;;;;;;;6.30;4.27;;;16.20;99.90;;;;;;5073148;28;20794;-68
2021/06/04 02:01:28;;;;;;;4.53;4.13;;;16.00;99.90;;;;;;5074832;28;20451;-68
2021/06/04 02:03:53;;;;;;;4.93;4.43;;;15.90;99.90;;;;;;5074636;28;20430;-68
2021/06/04 02:06:20;;;;;;;4.23;3.37;;;15.80;99.90;;;;;;5074097;28;20436;-67
2021/06/04 02:08:53;;;;;;;5.40;4.30;;;15.80;99.90;;;;;;5074135;28;20177;-68
2021/06/04 02:11:22;;;;;;;5.73;4.27;;;15.80;99.90;;;;;;5074178;28;20418;-67
2021/06/04 02:13:49;;;;;;;5.63;4.57;;;15.80;99.90;;;;;;5074236;28;20409;-67
2021/06/04 02:16:21;;;;;;;9.13;4.60;;;15.80;99.90;;;;;;5072644;28;20468;-67
2021/06/04 02:19:37;;;;;;;4.30;3.87;;;15.80;99.90;;;;;;5074432;28;20400;-68
2021/06/04 02:22:09;;;;;;;4.57;4.17;;;15.90;99.90;;;;;;5073208;28;20404;-67
2021/06/04 02:24:58;;;;;;;6.80;4.33;;;15.80;99.90;;;;;;5073916;28;20928;-67
2021/06/04 02:27:46;;;;;;;4.77;4.27;;;15.80;99.90;;;;;;5073751;28;20411;-67
2021/06/04 02:30:19;;;;;;;3.33;3.00;;;15.70;99.90;;;;;;5073875;28;20520;-67
2021/06/04 02:32:51;;;;;;;3.90;3.60;;;15.60;99.90;;;;;;5073980;28;20776;-68
2021/06/04 02:35:41;;;;;;;5.70;5.17;;;15.70;99.90;;;;;;5072447;28;20772;-68
2021/06/04 02:38:30;;;;;;;4.10;3.80;;;15.60;99.90;;;;;;5073839;28;20753;-68
2021/06/04 02:41:00;;;;;;;4.30;4.00;;;15.60;99.90;;;;;;5073848;28;20413;-67
2021/06/04 02:43:32;;;;;;;6.23;4.20;;;15.60;99.90;;;;;;5073713;28;20494;-68
2021/06/04 02:46:08;;;;;;;5.00;4.47;;;15.60;99.90;;;;;;5073071;28;20437;-68
2021/06/04 02:48:35;;;;;;;5.23;4.10;;;15.60;99.90;;;;;;5073671;28;20878;-67
2021/06/04 02:51:12;;;;;;;5.00;3.87;;;15.70;99.90;;;;;;5073520;28;20833;-67
2021/06/04 02:53:54;;;;;;;6.90;5.73;;;15.70;99.90;;;;;;5073627;28;20407;-68
2021/06/04 02:56:34;;;;;;;3.60;3.30;;;15.70;99.90;;;;;;5073418;28;20913;-68
2021/06/04 02:59:02;;;;;;;4.10;3.70;;;15.70;99.90;;;;;;5073454;28;20556;-67
2021/06/04 03:01:31;;;;;;;5.50;4.50;;;15.70;99.90;;;;;;5073453;28;20404;-67
2021/06/04 03:04:00;;;;;;;4.13;3.20;;;15.60;99.90;;;;;;5073515;28;20398;-67
2021/06/04 03:06:34;;;;;;;5.13;4.40;;;15.50;99.90;;;;;;5073409;28;20420;-68
2021/06/04 03:09:00;;;;;;;4.53;4.13;;;15.50;99.90;;;;;;5073330;28;20795;-68
2021/06/04 03:11:30;;;;;;;5.77;3.80;;;15.50;99.90;;;;;;5073531;28;20408;-67
2021/06/04 03:13:57;;;;;;;4.70;3.83;;;15.50;99.90;;;;;;5073330;28;20398;-68
2021/06/04 03:16:24;;;;;;;3.93;3.60;;;15.50;99.90;;;;;;5073208;28;20791;-67
2021/06/04 03:18:56;;;;;;;3.90;3.57;;;15.50;99.90;;;;;;5073251;28;20396;-67
2021/06/04 03:21:33;;;;;;;4.60;4.20;;;15.50;99.90;;;;;;5073534;28;20392;-68
2021/06/04 03:24:00;;;;;;;8.63;3.57;;;15.40;99.90;;;;;;5073488;28;20449;-68
2021/06/04 03:26:28;;;;;;;7.33;4.60;;;15.30;99.90;;;;;;5073056;28;20931;-68
2021/06/04 03:28:57;;;;;;;6.00;4.20;;;15.30;99.90;;;;;;5073455;28;20403;-68
2021/06/04 03:31:26;;;;;;;6.87;4.30;;;15.40;99.90;;;;;;5073267;28;20403;-67
2021/06/04 03:33:52;;;;;;;4.30;3.90;;;15.40;99.90;;;;;;5073314;28;20393;-68
2021/06/04 03:36:22;;;;;;;5.50;5.00;;;15.50;99.90;;;;;;5072951;28;20457;-68
2021/06/04 03:38:48;;;;;;;5.03;4.53;;;15.50;99.90;;;;;;5073003;28;20461;-68
2021/06/04 03:41:17;;;;;;;4.40;4.00;;;15.50;99.90;;;;;;5072104;28;20422;-67
2021/06/04 03:43:44;;;;;;;7.50;4.03;;;15.50;99.90;;;;;;5073143;28;20396;-68
2021/06/04 03:46:09;;;;;;;4.43;3.73;;;15.60;99.90;;;;;;5072895;28;20932;-68
2021/06/04 03:48:36;;;;;;;5.10;3.23;;;15.60;99.90;;;;;;5073105;28;20453;-67
2021/06/04 03:51:09;;;;;;;3.57;3.20;;;15.70;99.90;;;;;;5073078;28;20555;-68
2021/06/04 03:53:35;;;;;;;3.47;3.17;;;15.80;99.90;;;;;;5073551;28;20439;-67
2021/06/04 03:56:03;;;;;;;5.30;3.13;;;15.80;99.90;;;;;;5072664;28;20419;-68
2021/06/04 03:58:29;;;;;;;3.80;3.50;;;15.90;99.90;;;;;;5076063;28;20398;-67
2021/06/04 04:01:07;;;;;;;7.93;3.13;;;15.90;99.90;;;;;;5076868;28;20406;-67
2021/06/04 04:03:32;;;;;;;3.80;3.03;;;16.00;99.90;;;;;;5076834;28;20403;-68
2021/06/04 04:05:58;;;;;;;3.73;3.43;;;16.00;99.90;;;;;;5076763;28;21058;-67
2021/06/04 04:08:26;;;;;;;4.10;3.70;;;16.00;99.90;;;;;;5076775;28;20188;-68
2021/06/04 04:10:54;;;;;;;5.20;4.20;;;16.00;99.90;;;;;;5076553;28;20203;-68
2021/06/04 04:13:20;;;;;;;4.20;3.30;;;16.00;99.90;;;;;;5076877;28;20807;-68
2021/06/04 04:15:47;;;;;;;3.30;3.00;;;16.10;99.90;;;;;;5075599;28;20426;-69
2021/06/04 04:18:13;;;;;;;3.70;3.40;;;16.20;99.90;;;;;;5075553;28;20964;-67
2021/06/04 04:20:45;;;;;;;3.93;3.33;;;16.20;99.90;;;;;;5076469;28;20473;-69
2021/06/04 04:23:15;;;;;;;6.33;4.83;;;16.40;99.90;;;;;;5075160;28;20476;-68
2021/06/04 04:25:44;;;;;;;3.93;2.87;;;16.50;99.90;;;;;;5076275;28;20438;-67
2021/06/04 04:28:14;;;;;;;4.73;4.27;;;16.60;99.90;;;;;;5076178;28;20413;-69
2021/06/04 04:30:40;;;;;;;4.10;3.47;;;16.70;99.90;;;;;;5076307;28;20499;-67
2021/06/04 04:33:07;;;;;;;3.57;3.07;;;16.80;99.90;;;;;;5076065;28;20403;-68
2021/06/04 04:35:35;;;;;;;3.90;3.30;;;17.00;99.90;;;;;;5074615;28;20172;-67
2021/06/04 04:38:03;;;;;;;6.37;4.00;;;17.00;99.90;;;;;;5076289;28;20457;-68
2021/06/04 04:40:32;;;;;;;4.40;3.23;;;17.10;99.90;;;;;;5076313;28;20402;-67
2021/06/04 04:42:58;;;;;;;5.67;3.70;;;17.20;99.90;;;;;;5076157;28;20499;-68
2021/06/04 04:45:25;;;;;;;3.20;2.93;;;17.30;99.90;;;;;;5075837;28;20435;-68
2021/06/04 04:47:51;;;;;;;3.53;3.23;;;17.40;99.90;;;;;;5076021;28;20172;-69
2021/06/04 04:50:19;;;;;;;5.03;3.37;;;17.30;99.90;;;;;;5076155;28;20968;-68
2021/06/04 04:52:45;;;;;;;3.03;2.83;;;17.40;99.90;;;;;;5076041;28;20736;-69
2021/06/04 04:55:12;;;;;;;3.50;3.20;;;17.40;99.90;;;;;;5075849;28;20403;-68
2021/06/04 04:57:38;;;;;;;4.07;2.90;;;17.50;99.90;;;;;;5075577;28;20196;-68
2021/06/04 05:00:09;;;;;;;4.27;3.27;;;17.70;99.90;;;;;;5076041;28;20508;-67
2021/06/04 05:02:35;;;;;;;4.50;3.47;;;17.80;99.90;;;;;;5075576;28;20663;-67
2021/06/04 05:05:01;;;;;;;8.27;3.37;;;17.80;99.90;;;;;;5075543;28;20408;-68
2021/06/04 05:07:26;;;;;;;6.07;3.50;;;17.80;99.90;;;;;;5074965;28;20196;-67
2021/06/04 05:09:52;;;;;;;4.60;3.60;;;17.80;99.90;;;;;;5075385;28;20204;-67
2021/06/04 05:12:18;;;;;;;3.80;3.33;;;17.80;99.90;;;;;;5075571;28;20299;-68
2021/06/04 05:14:43;;;;;;;5.13;3.60;;;17.80;99.90;;;;;;5075557;28;20165;-68
2021/06/04 05:17:09;;;;;;;6.23;3.30;;;17.80;99.90;;;;;;5075143;28;20192;-68
2021/06/04 05:19:37;;;;;;;3.80;3.50;;;17.80;99.90;;;;;;5075496;28;20172;-69
2021/06/04 05:22:03;;;;;;;4.33;3.87;;;17.80;99.90;;;;;;5075241;28;20170;-68
2021/06/04 05:24:28;;;;;;;6.23;3.97;;;17.90;99.90;;;;;;5074926;28;20416;-68
2021/06/04 05:26:54;;;;;;;3.17;2.93;;;18.00;99.90;;;;;;5074615;28;20449;-67
2021/06/04 05:29:21;;;;;;;3.40;2.80;;;18.00;99.90;;;;;;5075049;28;20718;-67
2021/06/04 05:31:47;;;;;;;11.30;3.13;;;18.10;99.90;;;;;;5075236;28;20411;-68
2021/06/04 05:34:12;;;;;;;2.97;2.63;;;18.30;99.90;;;;;;5075068;28;20400;-67
2021/06/04 05:36:39;;;;;;;3.60;3.07;;;18.30;99.90;;;;;;5074886;28;20478;-68
2021/06/04 05:39:12;;;;;;;4.90;2.87;;;18.30;99.90;;;;;;5075165;28;20166;-68
2021/06/04 05:41:40;;;;;;;3.00;2.80;;;18.40;99.90;;;;;;5074700;28;20404;-69
2021/06/04 05:44:07;;;;;;;2.60;2.40;;;18.60;99.90;;;;;;5074746;28;20396;-68
2021/06/04 05:46:33;;;;;;;2.23;2.13;;;18.80;99.90;;;;;;5074629;28;20427;-69
2021/06/04 05:48:59;;;;;;;5.13;3.50;;;19.10;99.90;;;;;;5074345;28;20400;-67
2021/06/04 05:51:29;;;;;;;3.43;3.17;;;19.60;99.90;;;;;;5072792;28;20196;-67
2021/06/04 05:53:56;;;;;;;3.83;3.40;;;20.00;99.00;;;;;;5074127;28;20172;-68
2021/06/04 05:56:24;;;;;;;4.10;3.17;;;20.40;98.20;;;;;;5074255;28;20419;-68
2021/06/04 05:58:51;;;;;;;3.53;3.20;;;20.80;97.50;;;;;;5074477;28;20396;-68
2021/06/04 06:01:26;;;;;;;3.77;3.40;;;21.30;96.60;;;;;;5074503;28;20453;-68
2021/06/04 06:03:52;;;;;;;3.60;3.27;;;21.70;95.60;;;;;;5074860;28;20395;-68
2021/06/04 06:06:18;;;;;;;4.40;2.60;;;22.10;94.40;;;;;;5074147;28;20436;-68
2021/06/04 06:08:45;;;;;;;3.70;3.00;;;22.30;93.50;;;;;;5074235;28;20424;-69
2021/06/04 06:11:13;;;;;;;3.17;2.97;;;22.40;93.50;;;;;;5074195;28;20459;-67
2021/06/04 06:13:38;;;;;;;4.23;3.23;;;22.50;93.20;;;;;;5074129;28;20436;-67
2021/06/04 06:16:05;;;;;;;4.27;3.47;;;22.60;93.40;;;;;;5074062;28;20928;-69
2021/06/04 06:18:32;;;;;;;3.20;2.83;;;22.70;93.20;;;;;;5072870;28;20168;-69
2021/06/04 06:20:59;;;;;;;3.63;2.90;;;22.80;92.90;;;;;;5073535;28;20412;-69
2021/06/04 06:23:31;;;;;;;7.60;3.00;;;22.70;91.80;;;;;;5073591;28;20550;-68
2021/06/04 06:26:02;;;;;;;4.90;3.37;;;22.60;91.50;;;;;;5073282;28;20435;-69
2021/06/04 06:28:33;;;;;;;2.90;2.60;;;22.50;92.10;;;;;;5074352;28;20442;-68
2021/06/04 06:31:02;;;;;;;3.73;3.07;;;22.40;92.20;;;;;;5072512;28;20448;-69
2021/06/04 06:33:27;;;;;;;2.33;2.13;;;22.40;92.10;;;;;;5073374;28;20405;-69
2021/06/04 06:35:58;;;;;;;8.03;3.50;;;22.50;93.00;;;;;;5072355;28;20851;-67
2021/06/04 06:38:25;;;;;;;5.17;2.97;;;22.50;92.50;;;;;;5072889;28;20171;-67
2021/06/04 06:40:53;;;;;;;3.23;2.93;;;22.60;92.50;;;;;;5073803;28;20424;-67
2021/06/04 06:43:21;;;;;;;3.80;3.00;;;22.60;93.20;;;;;;5072416;28;20798;-67
2021/06/04 06:45:47;;;;;;;3.77;3.30;;;22.60;92.60;;;;;;5073856;28;20422;-67
2021/06/04 06:48:12;;;;;;;3.50;3.30;;;22.70;93.10;;;;;;5074339;28;20463;-67
2021/06/04 06:50:40;;;;;;;6.37;2.83;;;22.90;92.80;;;;;;5073606;28;20279;-67
2021/06/04 06:53:07;;;;;;;14.77;2.83;;;23.10;93.40;;;;;;5073811;28;20179;-67
2021/06/04 06:55:36;;;;;;;3.60;2.90;;;23.20;93.60;;;;;;5073299;28;20402;-66
2021/06/04 06:58:04;;;;;;;2.67;2.43;;;23.20;93.30;;;;;;5072480;28;20431;-66
2021/06/04 07:00:33;;;;;;;4.33;3.30;;;23.10;93.30;;;;;;5073438;28;20410;-66
2021/06/04 07:02:59;;;;;;;4.27;3.17;;;23.20;93.50;;;;;;5071855;28;20895;-66
2021/06/04 07:05:28;;;;;;;3.40;3.10;;;23.20;93.30;;;;;;5073207;28;20413;-67
2021/06/04 07:07:55;;;;;;;2.60;2.30;;;23.20;93.50;;;;;;5072598;28;20411;-67
2021/06/04 07:10:25;;;;;;;4.63;2.87;;;23.20;92.80;;;;;;5072769;28;20943;-67
2021/06/04 07:12:51;;;;;;;6.80;3.87;;;23.20;92.60;;;;;;5072294;28;20454;-67
2021/06/04 07:15:19;;;;;;;4.20;2.63;;;23.00;93.00;;;;;;5072159;28;20437;-67
2021/06/04 07:17:44;;;;;;;3.10;2.90;;;23.00;93.10;;;;;;5073366;28;20451;-67
2021/06/04 07:20:15;;;;;;;5.70;3.27;;;23.10;93.30;;;;;;5073013;28;20879;-67
2021/06/04 07:22:41;;;;;;;2.77;2.57;;;23.30;94.70;;;;;;5072622;28;20164;-67
2021/06/04 07:25:10;;;;;;;5.67;3.37;;;23.40;93.60;;;;;;5071323;28;20916;-69
2021/06/04 07:27:36;;;;;;;3.20;3.00;;;23.60;92.30;;;;;;5071861;28;20572;-68
2021/06/04 07:30:08;;;;;;;3.53;2.50;;;23.70;91.70;;;;;;5073166;28;20454;-68
2021/06/04 07:32:35;;;;;;;10.13;3.30;;;23.80;92.50;;;;;;5077183;28;20167;-67
2021/06/04 07:35:01;;;;;;;5.77;3.33;;;23.90;92.80;;;;;;5075898;28;20489;-69
2021/06/04 07:37:26;;;;;;;6.73;3.67;;;23.80;91.10;;;;;;5077520;28;20430;-69
2021/06/04 07:39:52;;;;;;;5.17;3.23;;;23.80;92.10;;;;;;5077486;28;20469;-67
2021/06/04 07:42:18;;;;;;;3.47;3.17;;;23.80;90.90;;;;;;5077810;28;20227;-67
2021/06/04 07:44:45;;;;;;;4.00;3.07;;;23.90;89.30;;;;;;5077218;28;20176;-68
2021/06/04 07:47:13;;;;;;;4.70;3.53;;;24.00;89.10;;;;;;5077143;28;20423;-68
2021/06/04 07:49:39;;;;;;;4.07;2.57;;;24.10;89.80;;;;;;5077009;28;20901;-68
2021/06/04 07:52:06;;;;;;;2.87;2.67;;;24.00;92.00;;;;;;5077077;28;20395;-68
2021/06/04 07:54:32;;;;;;;2.50;2.40;;;23.90;93.00;;;;;;5077473;28;20398;-70
2021/06/04 07:56:59;;;;;;;2.17;2.07;;;23.80;89.70;;;;;;5076755;28;20463;-67
2021/06/04 07:59:25;;;;;;;3.47;3.13;;;23.80;87.70;;;;;;5076951;28;20406;-67
2021/06/04 08:01:51;;;;;;;4.30;3.60;;;23.70;86.80;;;;;;5076929;28;20416;-73
2021/06/04 08:04:17;;;;;;;3.73;3.40;;;23.70;87.90;;;;;;5077072;28;20482;-67
2021/06/04 08:06:43;;;;;;;3.70;3.27;;;23.80;90.50;;;;;;5076897;28;20512;-71
2021/06/04 08:09:11;;;;;;;4.07;3.70;;;23.90;90.30;;;;;;5076602;28;20185;-71
2021/06/04 08:11:40;;;;;;;4.10;2.93;;;24.20;88.50;;;;;;5077295;28;20224;-68
2021/06/04 08:14:09;;;;;;;3.87;3.50;;;24.50;84.10;;;;;;5076677;28;20374;-68
2021/06/04 08:16:38;;;;;;;3.50;3.03;;;25.10;82.60;;;;;;5076531;28;20423;-68
2021/06/04 08:19:04;;;;;;;4.03;3.30;;;25.90;80.50;;;;;;5076863;28;20396;-69
2021/06/04 08:21:44;;;;;;;2.97;2.70;;;26.80;75.40;;;;;;5076713;28;20457;-69
2021/06/04 08:24:14;;;;;;;4.80;4.40;;;27.80;74.30;;;;;;5077054;28;20460;-68
2021/06/04 08:26:41;;;;;;;4.03;3.03;;;28.70;68.00;;;;;;5076432;28;20446;-69
2021/06/04 08:29:08;;;;;;;3.03;2.80;;;29.30;63.40;;;;;;5076510;28;20412;-68
2021/06/04 08:31:34;;;;;;;3.10;2.90;;;29.10;59.00;;;;;;5076421;28;20457;-69
2021/06/04 08:34:00;;;;;;;3.10;2.87;;;28.70;60.30;;;;;;5076446;28;20403;-70
2021/06/04 08:36:34;;;;;;;2.83;2.63;;;28.20;60.20;;;;;;5075924;28;20435;-68
2021/06/04 08:39:02;;;;;;;3.07;2.87;;;27.80;65.20;;;;;;5076211;28;20172;-68
2021/06/04 08:41:52;;;;;;;2.73;2.63;;;27.50;68.10;;;;;;5074952;28;20891;-68
2021/06/04 08:44:51;;;;;;;4.03;2.67;;;27.40;65.20;;;;;;5074211;28;20411;-68
2021/06/04 08:47:24;;;;;;;5.50;3.50;;;26.90;71.10;;;;;;5075800;28;20438;-68
2021/06/04 08:49:53;;;;;;;5.77;3.93;;;26.40;66.80;;;;;;5074701;28;20445;-67
2021/06/04 08:52:27;;;;;;;4.63;4.23;;;25.80;67.30;;;;;;5075487;28;20470;-68
2021/06/04 08:54:59;;;;;;;5.83;3.60;;;25.40;68.10;;;;;;5075729;28;20799;-67
2021/06/04 08:57:50;;;;;;;3.60;3.40;;;25.20;69.60;;;;;;5074228;28;20416;-68
2021/06/04 09:00:23;;;;;;;4.00;3.40;;;24.90;70.40;;;;;;5075531;28;20366;-68
2021/06/04 09:03:00;;;;;;;3.33;3.13;;;24.40;72.00;;;;;;5074279;28;20404;-67
2021/06/04 09:05:37;;;;;;;3.83;2.97;;;23.70;75.80;;;;;;5075053;28;20773;-67
2021/06/04 09:08:03;;;;;;;4.50;4.10;;;23.40;78.30;;;;;;5075295;28;20396;-67
2021/06/04 09:10:40;;;;;;;3.40;3.10;;;23.10;80.70;;;;;;5073657;28;20497;-67
2021/06/04 09:13:13;;;;;;;4.00;3.50;;;22.90;82.10;;;;;;5075524;28;20876;-67
2021/06/04 09:15:41;;;;;;;5.73;2.90;;;22.70;83.10;;;;;;5075274;28;20367;-67
2021/06/04 09:18:17;;;;;;;3.10;2.87;;;22.80;84.20;;;;;;5073737;28;20408;-67
2021/06/04 09:20:49;;;;;;;5.00;3.70;;;23.10;81.70;;;;;;5073703;28;20495;-67
2021/06/04 09:23:19;;;;;;;3.70;3.40;;;23.50;80.20;;;;;;5074663;28;20481;-67
2021/06/04 09:25:44;;;;;;;3.70;3.00;;;24.40;77.20;;;;;;5074131;28;20430;-68
2021/06/04 09:28:10;;;;;;;3.40;3.10;;;25.20;74.50;;;;;;5075823;28;20406;-68
2021/06/04 09:30:41;;;;;;;4.43;3.80;;;25.80;73.90;;;;;;5074934;28;20639;-67
2021/06/04 09:33:42;;;;;;;2.67;2.40;;;26.20;68.30;;;;;;5074673;28;20169;-67
2021/06/04 09:36:09;;;;;;;2.93;2.73;;;26.90;67.20;;;;;;5074161;28;20447;-67
2021/06/04 09:38:53;;;;;;;3.33;3.03;;;27.60;64.80;;;;;;5074976;28;20403;-67
2021/06/04 09:41:25;;;;;;;3.70;3.30;;;28.00;62.40;;;;;;5074887;28;20396;-67
2021/06/04 09:44:16;;;;;;;3.30;3.00;;;28.60;61.80;;;;;;5074869;28;20394;-67
2021/06/04 09:46:58;;;;;;;3.73;3.53;;;28.90;61.80;;;;;;5074701;28;20913;-67
2021/06/04 09:49:53;;;;;;;4.23;3.83;;;28.50;63.20;;;;;;5074765;28;20403;-67
2021/06/04 09:52:40;;;;;;;3.50;3.23;;;27.60;65.10;;;;;;5074746;28;20400;-67
2021/06/04 09:55:24;;;;;;;3.73;3.43;;;26.30;68.80;;;;;;5073278;28;20958;-67
2021/06/04 09:58:15;;;;;;;4.90;3.37;;;25.70;71.50;;;;;;5074493;28;20374;-67
2021/06/04 10:00:55;;;;;;;2.77;2.57;;;25.00;74.40;;;;;;5074713;28;20914;-67
2021/06/04 10:03:35;;;;;;;4.20;3.33;;;24.70;76.20;;;;;;5074578;28;20863;-67
2021/06/04 10:06:07;;;;;;;3.50;3.20;;;24.30;78.20;;;;;;5074448;28;20398;-67
2021/06/04 10:08:48;;;;;;;5.90;3.10;;;24.10;77.70;;;;;;5074417;28;20782;-67
2021/06/04 10:11:29;;;;;;;5.70;3.90;;;24.20;79.00;;;;;;5074243;28;20962;-67
2021/06/04 10:14:14;;;;;;;3.00;2.80;;;24.20;79.20;;;;;;5074422;28;20398;-67
2021/06/04 10:19:33;;;;;;;3.30;3.00;;;23.60;81.60;;;;;;5074177;28;20753;-67
2021/06/04 10:22:13;;;;;;;4.43;3.20;;;23.50;81.80;;;;;;5074021;28;20833;-67
2021/06/04 10:24:44;;;;;;;4.30;3.07;;;23.40;81.80;;;;;;5074272;28;20760;-67
2021/06/04 10:27:18;;;;;;;5.00;4.20;;;23.40;82.10;;;;;;5073829;28;20424;-67
2021/06/04 10:30:09;;;;;;;3.70;3.13;;;23.40;80.80;;;;;;5074184;28;20439;-67
2021/06/04 10:33:04;;;;;;;3.43;2.37;;;23.80;81.80;;;;;;5073883;28;20387;-67
2021/06/04 10:35:38;;;;;;;3.93;3.47;;;23.60;80.30;;;;;;5069950;28;20526;-67
2021/06/04 10:38:10;;;;;;;3.40;2.73;;;23.50;81.00;;;;;;5074060;28;20392;-67
2021/06/04 10:41:09;;;;;;;3.17;2.70;;;23.50;80.90;;;;;;5074028;28;20400;-67
2021/06/04 10:44:12;;;;;;;3.60;3.13;;;23.50;81.50;;;;;;5073909;28;20411;-67
2021/06/04 10:46:42;;;;;;;3.20;2.90;;;23.30;82.00;;;;;;5073566;28;20517;-67
2021/06/04 10:49:19;;;;;;;4.20;3.10;;;23.00;83.30;;;;;;5073801;28;20469;-67
2021/06/04 10:52:14;;;;;;;3.10;2.90;;;22.90;84.40;;;;;;5073881;28;20755;-67
2021/06/04 10:55:11;;;;;;;3.07;2.77;;;22.80;85.20;;;;;;5073586;28;20369;-67
2021/06/04 10:57:56;;;;;;;4.40;3.10;;;22.60;86.90;;;;;;5073550;28;20419;-67
2021/06/04 11:00:26;;;;;;;4.67;3.10;;;22.40;87.90;;;;;;5073710;28;20883;-67
2021/06/04 11:03:10;;;;;;;2.97;2.77;;;22.20;89.00;;;;;;5073725;28;20517;-67
2021/06/04 11:06:10;;;;;;;3.23;2.93;;;22.00;90.40;;;;;;5073045;28;20765;-67
2021/06/04 11:08:55;;;;;;;2.97;2.73;;;21.90;90.50;;;;;;5073278;28;20421;-67
2021/06/04 11:11:53;;;;;;;5.10;3.30;;;21.90;91.20;;;;;;5073409;28;20511;-67
2021/06/04 11:14:37;;;;;;;3.23;2.90;;;21.80;91.40;;;;;;5072407;28;20421;-67
2021/06/04 11:17:23;;;;;;;3.03;2.83;;;21.70;91.60;;;;;;5073131;28;20467;-67
2021/06/04 11:20:00;;;;;;;2.73;2.53;;;21.70;92.00;;;;;;5073398;28;20401;-67
2021/06/04 11:22:42;;;;;;;3.40;3.03;;;21.90;91.80;;;;;;5073563;28;20490;-67
2021/06/04 11:25:19;;;;;;;3.40;2.87;;;22.20;91.40;;;;;;5071791;28;20425;-67
2021/06/04 11:27:47;;;;;;;3.20;2.90;;;22.30;91.80;;;;;;5073269;28;20900;-67
2021/06/04 11:30:22;;;;;;;2.97;2.77;;;22.60;91.20;;;;;;5073212;28;20454;-67
2021/06/04 11:33:00;;;;;;;2.37;2.17;;;22.80;88.90;;;;;;5073477;28;20397;-67
2021/06/04 11:35:29;;;;;;;3.50;3.20;;;22.90;84.10;;;;;;5072638;28;20415;-67
2021/06/04 11:38:00;;;;;;;2.83;2.37;;;23.10;84.90;;;;;;5071991;28;20403;-67
2021/06/04 11:40:36;;;;;;;3.40;2.80;;;23.20;83.70;;;;;;5071802;28;20378;-67
2021/06/04 11:43:24;;;;;;;5.70;2.90;;;23.20;82.30;;;;;;5071742;28;20399;-67
2021/06/04 11:46:10;;;;;;;3.40;2.70;;;23.60;83.30;;;;;;5073253;28;20430;-67
2021/06/04 11:48:59;;;;;;;2.50;2.30;;;23.80;80.60;;;;;;5071932;28;20894;-68
2021/06/04 11:51:39;;;;;;;2.50;2.27;;;24.00;81.30;;;;;;5072879;28;20546;-67
2021/06/04 11:54:17;;;;;;;4.70;2.47;;;24.00;80.00;;;;;;5072575;28;20442;-67
2021/06/04 11:56:43;;;;;;;3.13;2.93;;;24.00;79.40;;;;;;5070971;28;20514;-68
2021/06/04 11:59:33;;;;;;;3.00;2.80;;;24.10;83.50;;;;;;5072632;28;20541;-69
2021/06/04 12:02:04;;;;;;;2.43;2.23;;;24.50;80.50;;;;;;5072915;28;20181;-69
2021/06/04 12:04:30;;;;;;;3.80;2.20;;;24.90;78.60;;;;;;5072727;28;20407;-68
2021/06/04 12:07:02;;;;;;;4.33;2.27;;;25.10;76.50;;;;;;5071658;28;20424;-68
2021/06/04 12:09:31;;;;;;;2.03;1.80;;;25.10;76.00;;;;;;5072778;28;20424;-68
2021/06/04 12:12:15;;;;;;;3.03;1.70;;;25.00;73.00;;;;;;5071506;28;20385;-67
2021/06/04 12:14:54;;;;;;;3.57;2.20;;;25.00;73.00;;;;;;5073503;28;20449;-69
2021/06/04 12:17:33;;;;;;;3.40;2.20;;;24.80;73.70;;;;;;5071363;28;20427;-68
2021/06/04 12:20:16;;;;;;;2.07;1.80;;;24.40;75.80;;;;;;5076811;28;20419;-68
2021/06/04 12:23:31;;;;;;;3.23;1.27;;;24.50;75.50;;;;;;5076726;28;20392;-69
2021/06/04 12:26:00;;;;;;;2.43;2.23;;;25.10;76.10;;;;;;5076064;28;20431;-68
2021/06/04 12:28:26;;;;;;;1.60;1.50;;;25.30;72.90;;;;;;5076579;28;20374;-69
2021/06/04 12:31:00;;;;;;;4.17;2.80;;;25.10;70.90;;;;;;5076522;28;20420;-69
2021/06/04 12:33:35;;;;;;;1.50;1.37;;;25.50;70.70;;;;;;5076731;28;20206;-70
2021/06/04 12:36:02;;;;;;;1.37;1.27;;;25.80;69.30;;;;;;5076003;28;20405;-68
2021/06/04 12:38:33;;;;;;;5.73;1.27;;;26.10;68.60;;;;;;5076423;28;20378;-67
2021/06/04 12:41:02;;;;;;;1.77;1.67;;;26.30;67.40;;;;;;5076488;28;20503;-68
2021/06/04 12:43:31;;;;;;;1.90;1.80;;;26.60;67.30;;;;;;5076391;28;20439;-67
2021/06/04 12:46:02;;;;;;;1.87;1.77;;;26.90;63.00;;;;;;5076001;28;20791;-68
2021/06/04 12:48:30;;;;;;;2.00;1.37;;;27.10;63.00;;;;;;5076394;28;20775;-68
2021/06/04 12:50:55;;;;;;;1.43;1.33;;;27.60;61.60;;;;;;5075927;28;20447;-68
2021/06/04 12:53:32;;;;;;;1.27;1.20;;;28.00;61.60;;;;;;5075740;28;20412;-69
2021/06/04 12:56:01;;;;;;;1.77;1.50;;;28.10;59.00;;;;;;5075682;28;20181;-69
2021/06/04 12:58:37;;;;;;;2.10;1.60;;;28.20;59.20;;;;;;5076309;28;20407;-68
2021/06/04 13:01:13;;;;;;;1.77;1.57;;;27.90;58.50;;;;;;5075635;28;20445;-67
2021/06/04 13:04:20;;;;;;;1.80;1.70;;;27.40;58.70;;;;;;5076008;28;20533;-73
2021/06/04 13:06:48;;;;;;;1.90;1.80;;;26.90;61.50;;;;;;5075533;28;20506;-68
2021/06/04 13:09:33;;;;;;;1.60;1.50;;;26.50;66.70;;;;;;5075523;28;20450;-67
2021/06/04 13:12:02;;;;;;;2.03;1.90;;;26.20;61.70;;;;;;5075467;28;20393;-67
2021/06/04 13:14:41;;;;;;;1.53;1.43;;;25.90;62.40;;;;;;5075450;28;20373;-67
2021/06/04 13:17:30;;;;;;;1.80;1.70;;;26.20;61.40;;;;;;5075737;28;20465;-67